Pagrindinis puslapis
METAR-TAF:

METAR-TAF

Oro uostai :

Managva, Nikaragva

platuma: 12-09N, ilguma: 086-10W, Aukštis: 50 m

Dabartinis oras

Ataskaita buvo paskelbta 29 minutes, ne 14:00 UTC
Vėjas 8 kt iš Rytų
Temperatūra 28°C
Drėgmė 74%
Slėgis 1012 hPa
Matomumas 10 km arba daugiau
Mažai debesys ne aukštis 2100 ft

METAR: MNMG 171400Z 10008KT 9999 FEW021 28/23 Q1011 A2987 NOSIG

Laikas: 08:29 (14:29 UTC)

Prognozė

Ataskaita buvo paskelbta 6 valandos ir 19 minutes, ne 08:10 UTC
Prognozė galioja nuo 17 metu 12 UTC su 18 metu 12 UTC
Vėjas 6 kt iš Rytų
Matomumas 10 km arba daugiau
Mažai debesys ne aukštis 2000 ft
Laikinai
nuo 17 metu 15 UTC su 17 metu 23 UTC
Vėjas 12 kt iš Rytų/Šiaurės Rytų
Matomumas 10 km arba daugiau
Mažai debesys ne aukštis 2400 ft

TAF: MNMG 170810Z 1712/1812 09006KT 9999 FEW020 TEMPO 1715/1723 06012KT 9999 FEW024

Orai ataskaitas ir orų prognozės (METAR, TAF).

turimą stotys yra geltonos ir raudonos taškus žemėlapyje.

Perkelti pele per norėdami pamatyti stoties vardą.

Tada spustelėkite, norėdami matyti oro stebėjimo ir prognozės.

Norėdami pakeisti žemėlapį: spustelėkite ant žalios mygtukų su juodo kryžiaus žemyn,; žalią mygtuką su brūkšneliu, jei norite nutolinti; arba žalių rodyklių gretimoms žemėlapius.


METAR-TAF: